sensor_id;sensor_type;location;lat;lon;timestamp;P1;durP1;ratioP1;P2;durP2;ratioP2
18693;SDS011;9477;51.414;10.362;2022-12-16T00:01:23;19.80;;;10.73;;
18693;SDS011;9477;51.414;10.362;2022-12-16T00:03:27;21.17;;;10.27;;
18693;SDS011;9477;51.414;10.362;2022-12-16T00:05:31;21.00;;;10.80;;
18693;SDS011;9477;51.414;10.362;2022-12-16T00:07:44;21.77;;;10.67;;
18693;SDS011;9477;51.414;10.362;2022-12-16T00:09:47;21.90;;;11.03;;
18693;SDS011;9477;51.414;10.362;2022-12-16T00:11:51;20.97;;;10.90;;
18693;SDS011;9477;51.414;10.362;2022-12-16T00:13:54;20.70;;;10.80;;
18693;SDS011;9477;51.414;10.362;2022-12-16T00:15:59;19.67;;;10.43;;
18693;SDS011;9477;51.414;10.362;2022-12-16T00:18:06;20.93;;;11.13;;
18693;SDS011;9477;51.414;10.362;2022-12-16T00:20:10;23.57;;;11.23;;
18693;SDS011;9477;51.414;10.362;2022-12-16T00:22:13;19.63;;;10.53;;
18693;SDS011;9477;51.414;10.362;2022-12-16T00:24:16;19.40;;;10.27;;
18693;SDS011;9477;51.414;10.362;2022-12-16T00:26:19;20.93;;;10.47;;
18693;SDS011;9477;51.414;10.362;2022-12-16T00:28:23;19.63;;;10.53;;
18693;SDS011;9477;51.414;10.362;2022-12-16T00:30:26;19.10;;;10.40;;
18693;SDS011;9477;51.414;10.362;2022-12-16T00:32:30;21.00;;;11.00;;
18693;SDS011;9477;51.414;10.362;2022-12-16T00:34:33;18.80;;;8.50;;
18693;SDS011;9477;51.414;10.362;2022-12-16T00:36:36;16.77;;;10.20;;
18693;SDS011;9477;51.414;10.362;2022-12-16T00:38:39;15.73;;;8.80;;
18693;SDS011;9477;51.414;10.362;2022-12-16T00:40:42;18.07;;;10.10;;
18693;SDS011;9477;51.414;10.362;2022-12-16T00:42:45;19.87;;;9.90;;
18693;SDS011;9477;51.414;10.362;2022-12-16T00:44:48;20.30;;;10.03;;
18693;SDS011;9477;51.414;10.362;2022-12-16T00:46:52;18.47;;;10.10;;
18693;SDS011;9477;51.414;10.362;2022-12-16T00:48:56;15.73;;;8.50;;
18693;SDS011;9477;51.414;10.362;2022-12-16T00:50:59;13.87;;;7.83;;
18693;SDS011;9477;51.414;10.362;2022-12-16T00:53:03;15.30;;;8.60;;
18693;SDS011;9477;51.414;10.362;2022-12-16T00:55:06;17.20;;;9.03;;
18693;SDS011;9477;51.414;10.362;2022-12-16T00:57:10;18.87;;;9.67;;
18693;SDS011;9477;51.414;10.362;2022-12-16T00:59:13;15.83;;;9.37;;
18693;SDS011;9477;51.414;10.362;2022-12-16T01:01:16;16.53;;;8.87;;
18693;SDS011;9477;51.414;10.362;2022-12-16T01:03:20;16.83;;;8.90;;
18693;SDS011;9477;51.414;10.362;2022-12-16T01:05:24;17.93;;;9.23;;
18693;SDS011;9477;51.414;10.362;2022-12-16T01:07:27;15.70;;;9.20;;
18693;SDS011;9477;51.414;10.362;2022-12-16T01:09:31;15.53;;;9.13;;
18693;SDS011;9477;51.414;10.362;2022-12-16T01:11:35;16.97;;;9.50;;
18693;SDS011;9477;51.414;10.362;2022-12-16T01:13:38;19.70;;;9.87;;
18693;SDS011;9477;51.414;10.362;2022-12-16T01:15:40;19.17;;;9.57;;
18693;SDS011;9477;51.414;10.362;2022-12-16T01:17:44;19.03;;;9.90;;
18693;SDS011;9477;51.414;10.362;2022-12-16T01:19:47;15.63;;;9.33;;
18693;SDS011;9477;51.414;10.362;2022-12-16T01:21:51;17.40;;;10.23;;
18693;SDS011;9477;51.414;10.362;2022-12-16T01:23:54;20.70;;;10.63;;
18693;SDS011;9477;51.414;10.362;2022-12-16T01:25:58;20.57;;;11.00;;
18693;SDS011;9477;51.414;10.362;2022-12-16T01:28:02;17.80;;;9.97;;
18693;SDS011;9477;51.414;10.362;2022-12-16T01:30:06;23.83;;;10.10;;
18693;SDS011;9477;51.414;10.362;2022-12-16T01:32:11;18.97;;;10.07;;
18693;SDS011;9477;51.414;10.362;2022-12-16T01:34:15;20.83;;;10.47;;
18693;SDS011;9477;51.414;10.362;2022-12-16T01:36:18;17.83;;;9.83;;
18693;SDS011;9477;51.414;10.362;2022-12-16T01:38:23;21.77;;;10.77;;
18693;SDS011;9477;51.414;10.362;2022-12-16T01:40:26;22.80;;;11.47;;
18693;SDS011;9477;51.414;10.362;2022-12-16T01:42:29;26.70;;;11.57;;
18693;SDS011;9477;51.414;10.362;2022-12-16T01:44:33;27.30;;;11.63;;
18693;SDS011;9477;51.414;10.362;2022-12-16T01:46:36;23.37;;;11.47;;
18693;SDS011;9477;51.414;10.362;2022-12-16T01:48:41;21.37;;;11.20;;
18693;SDS011;9477;51.414;10.362;2022-12-16T01:50:47;28.43;;;12.40;;
18693;SDS011;9477;51.414;10.362;2022-12-16T01:52:54;20.30;;;11.10;;
18693;SDS011;9477;51.414;10.362;2022-12-16T01:55:03;23.47;;;11.97;;
18693;SDS011;9477;51.414;10.362;2022-12-16T01:57:10;24.43;;;11.30;;
18693;SDS011;9477;51.414;10.362;2022-12-16T01:59:17;19.27;;;10.67;;
18693;SDS011;9477;51.414;10.362;2022-12-16T02:01:21;21.27;;;10.50;;
18693;SDS011;9477;51.414;10.362;2022-12-16T02:03:25;21.57;;;10.73;;
18693;SDS011;9477;51.414;10.362;2022-12-16T02:05:32;20.83;;;11.23;;
18693;SDS011;9477;51.414;10.362;2022-12-16T02:07:35;24.37;;;10.80;;
18693;SDS011;9477;51.414;10.362;2022-12-16T02:09:38;20.67;;;11.17;;
18693;SDS011;9477;51.414;10.362;2022-12-16T02:11:56;21.73;;;10.70;;
18693;SDS011;9477;51.414;10.362;2022-12-16T02:14:18;20.53;;;11.00;;
18693;SDS011;9477;51.414;10.362;2022-12-16T02:16:42;18.77;;;10.57;;
18693;SDS011;9477;51.414;10.362;2022-12-16T02:18:56;21.10;;;11.13;;
18693;SDS011;9477;51.414;10.362;2022-12-16T02:21:29;20.57;;;10.83;;
18693;SDS011;9477;51.414;10.362;2022-12-16T02:24:08;19.40;;;10.53;;
18693;SDS011;9477;51.414;10.362;2022-12-16T02:26:30;14.17;;;8.17;;
18693;SDS011;9477;51.414;10.362;2022-12-16T02:28:54;22.20;;;9.70;;
18693;SDS011;9477;51.414;10.362;2022-12-16T02:31:24;24.80;;;10.40;;
18693;SDS011;9477;51.414;10.362;2022-12-16T02:33:47;17.10;;;9.80;;
18693;SDS011;9477;51.414;10.362;2022-12-16T02:35:58;22.17;;;10.00;;
18693;SDS011;9477;51.414;10.362;2022-12-16T02:38:11;20.97;;;9.60;;
18693;SDS011;9477;51.414;10.362;2022-12-16T02:40:23;19.47;;;9.17;;
18693;SDS011;9477;51.414;10.362;2022-12-16T02:42:29;14.93;;;8.73;;
18693;SDS011;9477;51.414;10.362;2022-12-16T02:44:38;16.43;;;9.13;;
18693;SDS011;9477;51.414;10.362;2022-12-16T02:46:57;18.53;;;8.83;;
18693;SDS011;9477;51.414;10.362;2022-12-16T02:49:04;19.60;;;9.27;;
18693;SDS011;9477;51.414;10.362;2022-12-16T02:51:08;16.00;;;8.27;;
18693;SDS011;9477;51.414;10.362;2022-12-16T02:53:11;13.40;;;8.23;;
18693;SDS011;9477;51.414;10.362;2022-12-16T02:55:15;16.07;;;7.53;;
18693;SDS011;9477;51.414;10.362;2022-12-16T02:57:26;16.73;;;8.43;;
18693;SDS011;9477;51.414;10.362;2022-12-16T03:00:02;17.17;;;8.07;;
18693;SDS011;9477;51.414;10.362;2022-12-16T03:02:10;16.10;;;8.57;;
18693;SDS011;9477;51.414;10.362;2022-12-16T03:04:21;16.03;;;7.90;;
18693;SDS011;9477;51.414;10.362;2022-12-16T03:06:29;14.00;;;7.10;;
18693;SDS011;9477;51.414;10.362;2022-12-16T03:08:35;14.73;;;7.73;;
18693;SDS011;9477;51.414;10.362;2022-12-16T03:10:43;19.33;;;8.37;;
18693;SDS011;9477;51.414;10.362;2022-12-16T03:12:55;17.47;;;7.80;;
18693;SDS011;9477;51.414;10.362;2022-12-16T03:15:01;15.23;;;7.83;;
18693;SDS011;9477;51.414;10.362;2022-12-16T03:17:04;14.10;;;7.50;;
18693;SDS011;9477;51.414;10.362;2022-12-16T03:19:11;12.67;;;7.13;;
18693;SDS011;9477;51.414;10.362;2022-12-16T03:21:14;17.47;;;8.13;;
18693;SDS011;9477;51.414;10.362;2022-12-16T03:23:20;14.13;;;8.00;;
18693;SDS011;9477;51.414;10.362;2022-12-16T03:25:29;14.07;;;7.50;;
18693;SDS011;9477;51.414;10.362;2022-12-16T03:27:38;14.33;;;7.77;;
18693;SDS011;9477;51.414;10.362;2022-12-16T03:29:49;16.87;;;8.80;;
18693;SDS011;9477;51.414;10.362;2022-12-16T03:31:56;18.77;;;9.57;;
18693;SDS011;9477;51.414;10.362;2022-12-16T03:34:04;19.20;;;8.87;;
18693;SDS011;9477;51.414;10.362;2022-12-16T03:36:15;18.37;;;8.90;;
18693;SDS011;9477;51.414;10.362;2022-12-16T03:38:23;20.83;;;9.00;;
18693;SDS011;9477;51.414;10.362;2022-12-16T03:40:27;14.27;;;8.23;;
18693;SDS011;9477;51.414;10.362;2022-12-16T03:42:33;17.97;;;8.73;;
18693;SDS011;9477;51.414;10.362;2022-12-16T03:44:37;20.27;;;9.70;;
18693;SDS011;9477;51.414;10.362;2022-12-16T03:46:40;17.17;;;9.67;;
18693;SDS011;9477;51.414;10.362;2022-12-16T03:48:44;19.03;;;9.23;;
18693;SDS011;9477;51.414;10.362;2022-12-16T03:50:48;20.43;;;9.00;;
18693;SDS011;9477;51.414;10.362;2022-12-16T03:52:53;17.70;;;8.50;;
18693;SDS011;9477;51.414;10.362;2022-12-16T03:54:56;15.03;;;8.37;;
18693;SDS011;9477;51.414;10.362;2022-12-16T03:56:59;14.03;;;7.60;;
18693;SDS011;9477;51.414;10.362;2022-12-16T03:59:02;15.13;;;8.13;;
18693;SDS011;9477;51.414;10.362;2022-12-16T04:01:05;14.47;;;7.80;;
18693;SDS011;9477;51.414;10.362;2022-12-16T04:03:09;15.57;;;7.50;;
18693;SDS011;9477;51.414;10.362;2022-12-16T04:05:12;16.10;;;7.90;;
18693;SDS011;9477;51.414;10.362;2022-12-16T04:07:16;14.20;;;8.03;;
18693;SDS011;9477;51.414;10.362;2022-12-16T04:09:23;13.37;;;6.30;;
18693;SDS011;9477;51.414;10.362;2022-12-16T04:11:26;14.13;;;6.67;;
18693;SDS011;9477;51.414;10.362;2022-12-16T04:13:46;14.83;;;6.63;;
18693;SDS011;9477;51.414;10.362;2022-12-16T04:16:07;16.17;;;7.27;;
18693;SDS011;9477;51.414;10.362;2022-12-16T04:18:29;11.67;;;6.83;;
18693;SDS011;9477;51.414;10.362;2022-12-16T04:20:51;13.03;;;6.87;;
18693;SDS011;9477;51.414;10.362;2022-12-16T04:23:14;15.60;;;7.57;;
18693;SDS011;9477;51.414;10.362;2022-12-16T04:25:37;13.00;;;7.30;;
18693;SDS011;9477;51.414;10.362;2022-12-16T04:27:40;12.17;;;7.03;;
18693;SDS011;9477;51.414;10.362;2022-12-16T04:29:47;15.93;;;7.20;;
18693;SDS011;9477;51.414;10.362;2022-12-16T04:32:08;12.50;;;7.47;;
18693;SDS011;9477;51.414;10.362;2022-12-16T04:34:11;16.53;;;7.67;;
18693;SDS011;9477;51.414;10.362;2022-12-16T04:36:29;11.30;;;6.47;;
18693;SDS011;9477;51.414;10.362;2022-12-16T04:38:50;10.50;;;6.07;;
18693;SDS011;9477;51.414;10.362;2022-12-16T04:41:20;12.37;;;6.63;;
18693;SDS011;9477;51.414;10.362;2022-12-16T04:43:41;10.40;;;6.27;;
18693;SDS011;9477;51.414;10.362;2022-12-16T04:46:02;12.07;;;6.73;;
18693;SDS011;9477;51.414;10.362;2022-12-16T04:48:22;15.87;;;7.87;;
18693;SDS011;9477;51.414;10.362;2022-12-16T04:50:43;12.87;;;7.40;;
18693;SDS011;9477;51.414;10.362;2022-12-16T04:53:04;14.67;;;6.90;;
18693;SDS011;9477;51.414;10.362;2022-12-16T04:55:24;19.73;;;10.17;;
18693;SDS011;9477;51.414;10.362;2022-12-16T04:57:47;15.47;;;7.97;;
18693;SDS011;9477;51.414;10.362;2022-12-16T05:00:21;18.50;;;6.83;;
18693;SDS011;9477;51.414;10.362;2022-12-16T05:02:56;12.50;;;6.70;;
18693;SDS011;9477;51.414;10.362;2022-12-16T05:05:16;14.23;;;7.67;;
18693;SDS011;9477;51.414;10.362;2022-12-16T05:07:33;49.83;;;18.77;;
18693;SDS011;9477;51.414;10.362;2022-12-16T05:09:54;51.07;;;19.53;;
18693;SDS011;9477;51.414;10.362;2022-12-16T05:12:14;34.00;;;14.17;;
18693;SDS011;9477;51.414;10.362;2022-12-16T05:14:36;20.70;;;8.83;;
18693;SDS011;9477;51.414;10.362;2022-12-16T05:16:57;26.30;;;10.97;;
18693;SDS011;9477;51.414;10.362;2022-12-16T05:19:17;20.13;;;10.10;;
18693;SDS011;9477;51.414;10.362;2022-12-16T05:21:38;18.73;;;9.13;;
18693;SDS011;9477;51.414;10.362;2022-12-16T05:24:01;17.93;;;9.13;;
18693;SDS011;9477;51.414;10.362;2022-12-16T05:26:22;20.67;;;10.53;;
18693;SDS011;9477;51.414;10.362;2022-12-16T05:28:42;19.47;;;9.30;;
18693;SDS011;9477;51.414;10.362;2022-12-16T05:31:03;21.50;;;9.53;;
18693;SDS011;9477;51.414;10.362;2022-12-16T05:33:24;18.10;;;9.60;;
18693;SDS011;9477;51.414;10.362;2022-12-16T05:35:45;19.37;;;10.00;;
18693;SDS011;9477;51.414;10.362;2022-12-16T05:38:05;21.60;;;10.33;;
18693;SDS011;9477;51.414;10.362;2022-12-16T05:40:25;20.57;;;10.23;;
18693;SDS011;9477;51.414;10.362;2022-12-16T05:42:46;21.97;;;10.13;;
18693;SDS011;9477;51.414;10.362;2022-12-16T05:45:06;21.27;;;10.77;;
18693;SDS011;9477;51.414;10.362;2022-12-16T05:47:28;20.90;;;10.07;;
18693;SDS011;9477;51.414;10.362;2022-12-16T05:49:48;27.93;;;11.40;;
18693;SDS011;9477;51.414;10.362;2022-12-16T05:52:09;23.40;;;12.07;;
18693;SDS011;9477;51.414;10.362;2022-12-16T05:54:29;20.50;;;10.80;;
18693;SDS011;9477;51.414;10.362;2022-12-16T05:56:50;24.23;;;12.00;;
18693;SDS011;9477;51.414;10.362;2022-12-16T05:59:10;30.90;;;12.07;;
18693;SDS011;9477;51.414;10.362;2022-12-16T06:01:36;25.20;;;11.30;;
18693;SDS011;9477;51.414;10.362;2022-12-16T06:03:58;26.87;;;11.23;;
18693;SDS011;9477;51.414;10.362;2022-12-16T06:06:19;28.77;;;12.27;;
18693;SDS011;9477;51.414;10.362;2022-12-16T06:08:39;27.57;;;12.27;;
18693;SDS011;9477;51.414;10.362;2022-12-16T06:11:00;28.27;;;13.43;;
18693;SDS011;9477;51.414;10.362;2022-12-16T06:13:20;27.90;;;13.03;;
18693;SDS011;9477;51.414;10.362;2022-12-16T06:15:41;28.40;;;13.30;;
18693;SDS011;9477;51.414;10.362;2022-12-16T06:18:08;36.07;;;15.77;;
18693;SDS011;9477;51.414;10.362;2022-12-16T06:20:30;79.10;;;24.27;;
18693;SDS011;9477;51.414;10.362;2022-12-16T06:22:49;33.77;;;15.57;;
18693;SDS011;9477;51.414;10.362;2022-12-16T06:25:10;47.57;;;18.93;;
18693;SDS011;9477;51.414;10.362;2022-12-16T06:27:30;47.73;;;18.80;;
18693;SDS011;9477;51.414;10.362;2022-12-16T06:29:51;41.10;;;17.83;;
18693;SDS011;9477;51.414;10.362;2022-12-16T06:32:14;38.63;;;15.47;;
18693;SDS011;9477;51.414;10.362;2022-12-16T06:34:34;31.87;;;14.50;;
18693;SDS011;9477;51.414;10.362;2022-12-16T06:36:56;35.03;;;14.47;;
18693;SDS011;9477;51.414;10.362;2022-12-16T06:39:17;35.60;;;17.63;;
18693;SDS011;9477;51.414;10.362;2022-12-16T06:41:37;44.33;;;17.30;;
18693;SDS011;9477;51.414;10.362;2022-12-16T06:43:57;41.17;;;18.20;;
18693;SDS011;9477;51.414;10.362;2022-12-16T06:46:18;35.37;;;16.30;;
18693;SDS011;9477;51.414;10.362;2022-12-16T06:48:38;33.87;;;16.43;;
18693;SDS011;9477;51.414;10.362;2022-12-16T06:50:59;40.17;;;18.03;;
18693;SDS011;9477;51.414;10.362;2022-12-16T06:53:21;38.67;;;17.47;;
18693;SDS011;9477;51.414;10.362;2022-12-16T06:55:41;38.20;;;16.27;;
18693;SDS011;9477;51.414;10.362;2022-12-16T06:58:02;34.87;;;16.47;;
18693;SDS011;9477;51.414;10.362;2022-12-16T07:00:22;39.73;;;17.20;;
18693;SDS011;9477;51.414;10.362;2022-12-16T07:02:43;36.87;;;17.13;;
18693;SDS011;9477;51.414;10.362;2022-12-16T07:05:04;35.10;;;16.40;;
18693;SDS011;9477;51.414;10.362;2022-12-16T07:07:25;37.50;;;16.53;;
18693;SDS011;9477;51.414;10.362;2022-12-16T07:09:47;32.20;;;16.57;;
18693;SDS011;9477;51.414;10.362;2022-12-16T07:12:07;36.07;;;18.57;;
18693;SDS011;9477;51.414;10.362;2022-12-16T07:14:28;41.60;;;19.27;;
18693;SDS011;9477;51.414;10.362;2022-12-16T07:16:48;32.87;;;17.33;;
18693;SDS011;9477;51.414;10.362;2022-12-16T07:19:17;36.83;;;18.80;;
18693;SDS011;9477;51.414;10.362;2022-12-16T07:21:37;33.23;;;15.37;;
18693;SDS011;9477;51.414;10.362;2022-12-16T07:24:00;42.37;;;18.57;;
18693;SDS011;9477;51.414;10.362;2022-12-16T07:26:22;30.37;;;17.50;;
18693;SDS011;9477;51.414;10.362;2022-12-16T07:28:42;36.93;;;19.23;;
18693;SDS011;9477;51.414;10.362;2022-12-16T07:31:14;31.87;;;16.47;;
18693;SDS011;9477;51.414;10.362;2022-12-16T07:33:35;30.33;;;16.03;;
18693;SDS011;9477;51.414;10.362;2022-12-16T07:35:55;34.07;;;17.67;;
18693;SDS011;9477;51.414;10.362;2022-12-16T07:38:16;26.73;;;16.87;;
18693;SDS011;9477;51.414;10.362;2022-12-16T07:40:36;26.37;;;15.30;;
18693;SDS011;9477;51.414;10.362;2022-12-16T07:42:58;31.67;;;16.33;;
18693;SDS011;9477;51.414;10.362;2022-12-16T07:45:19;28.70;;;16.77;;
18693;SDS011;9477;51.414;10.362;2022-12-16T07:47:45;30.30;;;15.63;;
18693;SDS011;9477;51.414;10.362;2022-12-16T07:50:06;32.40;;;15.93;;
18693;SDS011;9477;51.414;10.362;2022-12-16T07:52:27;26.67;;;14.10;;
18693;SDS011;9477;51.414;10.362;2022-12-16T07:54:51;31.97;;;14.37;;
18693;SDS011;9477;51.414;10.362;2022-12-16T07:57:11;24.07;;;13.40;;
18693;SDS011;9477;51.414;10.362;2022-12-16T07:59:33;22.60;;;12.33;;
18693;SDS011;9477;51.414;10.362;2022-12-16T08:01:54;17.67;;;8.70;;
18693;SDS011;9477;51.414;10.362;2022-12-16T08:04:14;20.07;;;8.27;;
18693;SDS011;9477;51.414;10.362;2022-12-16T08:06:35;14.73;;;6.90;;
18693;SDS011;9477;51.414;10.362;2022-12-16T08:08:55;15.40;;;6.97;;
18693;SDS011;9477;51.414;10.362;2022-12-16T08:11:16;11.47;;;6.10;;
18693;SDS011;9477;51.414;10.362;2022-12-16T08:13:36;10.53;;;6.50;;
18693;SDS011;9477;51.414;10.362;2022-12-16T08:16:00;11.00;;;6.70;;
18693;SDS011;9477;51.414;10.362;2022-12-16T08:18:36;14.93;;;7.00;;
18693;SDS011;9477;51.414;10.362;2022-12-16T08:20:57;11.27;;;7.10;;
18693;SDS011;9477;51.414;10.362;2022-12-16T08:23:17;12.30;;;6.13;;
18693;SDS011;9477;51.414;10.362;2022-12-16T08:25:38;12.20;;;7.13;;
18693;SDS011;9477;51.414;10.362;2022-12-16T08:27:58;11.87;;;7.03;;
18693;SDS011;9477;51.414;10.362;2022-12-16T08:30:19;11.87;;;7.80;;
18693;SDS011;9477;51.414;10.362;2022-12-16T08:32:41;18.03;;;9.03;;
18693;SDS011;9477;51.414;10.362;2022-12-16T08:35:15;14.37;;;8.03;;
18693;SDS011;9477;51.414;10.362;2022-12-16T08:37:36;22.40;;;12.73;;
18693;SDS011;9477;51.414;10.362;2022-12-16T08:39:56;14.07;;;8.57;;
18693;SDS011;9477;51.414;10.362;2022-12-16T08:42:35;12.50;;;7.43;;
18693;SDS011;9477;51.414;10.362;2022-12-16T08:44:56;13.20;;;7.90;;
18693;SDS011;9477;51.414;10.362;2022-12-16T08:47:17;14.30;;;7.67;;
18693;SDS011;9477;51.414;10.362;2022-12-16T08:49:39;13.47;;;8.00;;
18693;SDS011;9477;51.414;10.362;2022-12-16T08:52:02;19.03;;;8.53;;
18693;SDS011;9477;51.414;10.362;2022-12-16T08:54:28;14.50;;;8.27;;
18693;SDS011;9477;51.414;10.362;2022-12-16T08:56:49;15.17;;;7.90;;
18693;SDS011;9477;51.414;10.362;2022-12-16T08:59:09;11.20;;;6.90;;
18693;SDS011;9477;51.414;10.362;2022-12-16T09:01:29;18.70;;;8.03;;
18693;SDS011;9477;51.414;10.362;2022-12-16T09:03:51;14.23;;;8.23;;
18693;SDS011;9477;51.414;10.362;2022-12-16T09:06:15;14.30;;;8.03;;
18693;SDS011;9477;51.414;10.362;2022-12-16T09:08:41;14.77;;;7.80;;
18693;SDS011;9477;51.414;10.362;2022-12-16T09:11:01;16.03;;;8.47;;
18693;SDS011;9477;51.414;10.362;2022-12-16T09:13:21;14.00;;;7.90;;
18693;SDS011;9477;51.414;10.362;2022-12-16T09:15:42;10.20;;;6.67;;
18693;SDS011;9477;51.414;10.362;2022-12-16T09:18:02;11.10;;;6.43;;
18693;SDS011;9477;51.414;10.362;2022-12-16T09:20:19;13.43;;;7.60;;
18693;SDS011;9477;51.414;10.362;2022-12-16T09:22:41;13.23;;;7.63;;
18693;SDS011;9477;51.414;10.362;2022-12-16T09:25:02;13.20;;;7.43;;
18693;SDS011;9477;51.414;10.362;2022-12-16T09:27:22;13.03;;;8.03;;
18693;SDS011;9477;51.414;10.362;2022-12-16T09:29:43;26.63;;;14.20;;
18693;SDS011;9477;51.414;10.362;2022-12-16T09:32:03;17.77;;;10.30;;
18693;SDS011;9477;51.414;10.362;2022-12-16T09:34:24;13.13;;;7.90;;
18693;SDS011;9477;51.414;10.362;2022-12-16T09:36:44;12.40;;;7.40;;
18693;SDS011;9477;51.414;10.362;2022-12-16T09:39:06;11.77;;;7.30;;
18693;SDS011;9477;51.414;10.362;2022-12-16T09:41:34;10.07;;;6.70;;
18693;SDS011;9477;51.414;10.362;2022-12-16T09:44:02;11.57;;;6.43;;
18693;SDS011;9477;51.414;10.362;2022-12-16T09:46:30;13.13;;;6.50;;
18693;SDS011;9477;51.414;10.362;2022-12-16T09:49:09;12.83;;;7.60;;
18693;SDS011;9477;51.414;10.362;2022-12-16T09:51:36;12.40;;;6.17;;
18693;SDS011;9477;51.414;10.362;2022-12-16T09:54:08;10.47;;;6.00;;
18693;SDS011;9477;51.414;10.362;2022-12-16T09:56:33;11.80;;;5.70;;
18693;SDS011;9477;51.414;10.362;2022-12-16T09:58:57;11.30;;;5.97;;
18693;SDS011;9477;51.414;10.362;2022-12-16T10:01:20;12.60;;;6.03;;
18693;SDS011;9477;51.414;10.362;2022-12-16T10:03:41;9.30;;;5.73;;
18693;SDS011;9477;51.414;10.362;2022-12-16T10:06:03;15.30;;;5.90;;
18693;SDS011;9477;51.414;10.362;2022-12-16T10:08:32;8.40;;;5.97;;
18693;SDS011;9477;51.414;10.362;2022-12-16T10:11:03;8.97;;;5.77;;
18693;SDS011;9477;51.414;10.362;2022-12-16T10:13:32;9.47;;;5.37;;
18693;SDS011;9477;51.414;10.362;2022-12-16T10:16:02;9.60;;;6.10;;
18693;SDS011;9477;51.414;10.362;2022-12-16T10:18:30;10.73;;;6.43;;
18693;SDS011;9477;51.414;10.362;2022-12-16T10:21:00;9.00;;;5.87;;
18693;SDS011;9477;51.414;10.362;2022-12-16T10:23:24;12.90;;;6.10;;
18693;SDS011;9477;51.414;10.362;2022-12-16T10:25:51;11.03;;;6.23;;
18693;SDS011;9477;51.414;10.362;2022-12-16T10:28:18;9.80;;;6.00;;
18693;SDS011;9477;51.414;10.362;2022-12-16T10:30:55;9.87;;;6.07;;
18693;SDS011;9477;51.414;10.362;2022-12-16T10:33:16;13.87;;;7.97;;
18693;SDS011;9477;51.414;10.362;2022-12-16T10:35:40;14.07;;;8.33;;
18693;SDS011;9477;51.414;10.362;2022-12-16T10:38:05;12.97;;;8.33;;
18693;SDS011;9477;51.414;10.362;2022-12-16T10:40:33;14.83;;;9.50;;
18693;SDS011;9477;51.414;10.362;2022-12-16T10:42:56;15.63;;;10.03;;
18693;SDS011;9477;51.414;10.362;2022-12-16T10:45:33;14.83;;;9.63;;
18693;SDS011;9477;51.414;10.362;2022-12-16T10:47:56;12.33;;;8.77;;
18693;SDS011;9477;51.414;10.362;2022-12-16T10:50:17;37.60;;;24.03;;
18693;SDS011;9477;51.414;10.362;2022-12-16T10:52:42;14.53;;;9.73;;
18693;SDS011;9477;51.414;10.362;2022-12-16T10:55:11;13.23;;;8.57;;
18693;SDS011;9477;51.414;10.362;2022-12-16T10:57:47;21.20;;;11.40;;
18693;SDS011;9477;51.414;10.362;2022-12-16T11:00:16;15.70;;;9.37;;
18693;SDS011;9477;51.414;10.362;2022-12-16T11:02:40;12.10;;;7.70;;
18693;SDS011;9477;51.414;10.362;2022-12-16T11:05:07;16.47;;;9.27;;
18693;SDS011;9477;51.414;10.362;2022-12-16T11:07:51;18.13;;;9.87;;
18693;SDS011;9477;51.414;10.362;2022-12-16T11:12:56;16.63;;;9.93;;
18693;SDS011;9477;51.414;10.362;2022-12-16T11:15:38;18.07;;;10.37;;
18693;SDS011;9477;51.414;10.362;2022-12-16T11:18:05;16.37;;;9.57;;
18693;SDS011;9477;51.414;10.362;2022-12-16T11:20:28;14.20;;;8.97;;
18693;SDS011;9477;51.414;10.362;2022-12-16T11:22:54;16.57;;;9.50;;
18693;SDS011;9477;51.414;10.362;2022-12-16T11:25:27;13.67;;;8.63;;
18693;SDS011;9477;51.414;10.362;2022-12-16T11:27:47;14.30;;;8.87;;
18693;SDS011;9477;51.414;10.362;2022-12-16T11:30:15;16.13;;;9.20;;
18693;SDS011;9477;51.414;10.362;2022-12-16T11:32:38;14.60;;;8.90;;
18693;SDS011;9477;51.414;10.362;2022-12-16T11:35:04;12.87;;;9.23;;
18693;SDS011;9477;51.414;10.362;2022-12-16T11:37:30;15.20;;;8.67;;
18693;SDS011;9477;51.414;10.362;2022-12-16T11:39:50;13.50;;;8.73;;
18693;SDS011;9477;51.414;10.362;2022-12-16T11:42:15;15.67;;;9.73;;
18693;SDS011;9477;51.414;10.362;2022-12-16T11:44:41;17.10;;;10.90;;
18693;SDS011;9477;51.414;10.362;2022-12-16T11:47:07;12.73;;;7.93;;
18693;SDS011;9477;51.414;10.362;2022-12-16T11:49:34;13.93;;;8.90;;
18693;SDS011;9477;51.414;10.362;2022-12-16T11:51:58;19.33;;;9.77;;
18693;SDS011;9477;51.414;10.362;2022-12-16T11:54:37;18.70;;;10.37;;
18693;SDS011;9477;51.414;10.362;2022-12-16T11:57:14;18.57;;;11.17;;
18693;SDS011;9477;51.414;10.362;2022-12-16T11:59:38;18.73;;;11.73;;
18693;SDS011;9477;51.414;10.362;2022-12-16T12:02:01;17.07;;;10.03;;
18693;SDS011;9477;51.414;10.362;2022-12-16T12:04:29;20.40;;;12.13;;
18693;SDS011;9477;51.414;10.362;2022-12-16T12:06:54;21.20;;;12.40;;
18693;SDS011;9477;51.414;10.362;2022-12-16T12:09:25;22.30;;;12.47;;
18693;SDS011;9477;51.414;10.362;2022-12-16T12:11:48;25.37;;;14.77;;
18693;SDS011;9477;51.414;10.362;2022-12-16T12:14:15;29.60;;;16.10;;
18693;SDS011;9477;51.414;10.362;2022-12-16T12:16:59;22.83;;;13.47;;
18693;SDS011;9477;51.414;10.362;2022-12-16T12:19:32;21.20;;;13.27;;
18693;SDS011;9477;51.414;10.362;2022-12-16T12:22:06;21.17;;;12.67;;
18693;SDS011;9477;51.414;10.362;2022-12-16T12:24:32;20.10;;;12.47;;
18693;SDS011;9477;51.414;10.362;2022-12-16T12:27:03;17.13;;;11.40;;
18693;SDS011;9477;51.414;10.362;2022-12-16T12:29:29;24.73;;;14.00;;
18693;SDS011;9477;51.414;10.362;2022-12-16T12:32:03;24.60;;;14.03;;
18693;SDS011;9477;51.414;10.362;2022-12-16T12:34:31;21.20;;;13.80;;
18693;SDS011;9477;51.414;10.362;2022-12-16T12:37:01;22.33;;;13.57;;
18693;SDS011;9477;51.414;10.362;2022-12-16T12:39:28;19.97;;;11.77;;
18693;SDS011;9477;51.414;10.362;2022-12-16T12:41:57;18.97;;;12.30;;
18693;SDS011;9477;51.414;10.362;2022-12-16T12:44:30;22.47;;;12.93;;
18693;SDS011;9477;51.414;10.362;2022-12-16T12:47:10;21.57;;;11.13;;
18693;SDS011;9477;51.414;10.362;2022-12-16T12:49:33;21.33;;;12.73;;
18693;SDS011;9477;51.414;10.362;2022-12-16T12:52:02;21.23;;;12.77;;
18693;SDS011;9477;51.414;10.362;2022-12-16T12:54:32;20.90;;;12.47;;
18693;SDS011;9477;51.414;10.362;2022-12-16T12:56:56;24.07;;;14.63;;
18693;SDS011;9477;51.414;10.362;2022-12-16T12:59:19;23.63;;;14.17;;
18693;SDS011;9477;51.414;10.362;2022-12-16T13:01:43;22.57;;;13.00;;
18693;SDS011;9477;51.414;10.362;2022-12-16T13:04:08;20.73;;;14.23;;
18693;SDS011;9477;51.414;10.362;2022-12-16T13:06:32;24.90;;;14.23;;
18693;SDS011;9477;51.414;10.362;2022-12-16T13:08:57;24.03;;;13.63;;
18693;SDS011;9477;51.414;10.362;2022-12-16T13:11:24;22.87;;;13.90;;
18693;SDS011;9477;51.414;10.362;2022-12-16T13:13:44;24.53;;;13.50;;
18693;SDS011;9477;51.414;10.362;2022-12-16T13:16:07;34.90;;;16.17;;
18693;SDS011;9477;51.414;10.362;2022-12-16T13:18:30;23.23;;;12.80;;
18693;SDS011;9477;51.414;10.362;2022-12-16T13:20:52;23.03;;;15.43;;
18693;SDS011;9477;51.414;10.362;2022-12-16T13:25:58;26.27;;;14.30;;
18693;SDS011;9477;51.414;10.362;2022-12-16T13:28:25;22.77;;;13.37;;
18693;SDS011;9477;51.414;10.362;2022-12-16T13:30:56;21.83;;;13.00;;
18693;SDS011;9477;51.414;10.362;2022-12-16T13:33:26;18.47;;;11.80;;
18693;SDS011;9477;51.414;10.362;2022-12-16T13:35:51;21.30;;;10.47;;
18693;SDS011;9477;51.414;10.362;2022-12-16T13:38:18;20.90;;;11.90;;
18693;SDS011;9477;51.414;10.362;2022-12-16T13:40:51;22.17;;;12.63;;